Bristol, Tennessee
Current Conditions -  °F | °C
As of 11:55 AM on Saturday 22 Nov 2014 (Local Time) from KVJI Reporting Station
Clear Clear  
Wind Chill: 53°   Ceiling: Unl
Heat Index: 53°   Visibility: 10mi
Dew Point: 18°   Wind: 0mph
Humidity: 25%   Direction: NA
Pressure: 30.37"   Gusts: NA
Location:  36.59°N, 82.22°W
Report Text: KVJI 221655Z AUTO 00000KT 10SM CLR 12/M08 A3037 RMK AO2 T01171080
Loading
Personal Weather Stations






























Interactive Weather Map New forecast layout! Learn more

10-Day Weather Forecast

Advertisements
Track Severe Weather on mobile